sensor_id;sensor_type;location;lat;lon;timestamp;P1;durP1;ratioP1;P2;durP2;ratioP2
12163;SDS011;6145;50.192;10.064;2024-02-04T17:58:20;1.77;;;1.67;;
12163;SDS011;6145;50.192;10.064;2024-02-04T18:00:47;1.73;;;1.60;;
12163;SDS011;6145;50.192;10.064;2024-02-04T18:03:13;1.70;;;1.60;;
12163;SDS011;6145;50.192;10.064;2024-02-04T18:05:40;1.93;;;1.73;;
12163;SDS011;6145;50.192;10.064;2024-02-04T18:08:08;1.50;;;1.40;;
12163;SDS011;6145;50.192;10.064;2024-02-04T18:10:35;1.70;;;1.60;;
12163;SDS011;6145;50.192;10.064;2024-02-04T18:13:02;2.03;;;1.83;;
12163;SDS011;6145;50.192;10.064;2024-02-04T18:15:31;2.03;;;1.83;;
12163;SDS011;6145;50.192;10.064;2024-02-04T18:17:58;1.67;;;1.57;;
12163;SDS011;6145;50.192;10.064;2024-02-04T18:20:26;2.10;;;1.90;;
12163;SDS011;6145;50.192;10.064;2024-02-04T18:22:53;1.77;;;1.67;;
12163;SDS011;6145;50.192;10.064;2024-02-04T18:25:19;2.30;;;1.83;;
12163;SDS011;6145;50.192;10.064;2024-02-04T18:27:46;2.10;;;1.83;;
12163;SDS011;6145;50.192;10.064;2024-02-04T18:30:13;1.83;;;1.73;;
12163;SDS011;6145;50.192;10.064;2024-02-04T18:32:43;1.70;;;1.60;;
12163;SDS011;6145;50.192;10.064;2024-02-04T18:35:10;2.37;;;2.17;;
12163;SDS011;6145;50.192;10.064;2024-02-04T18:37:37;1.83;;;1.70;;
12163;SDS011;6145;50.192;10.064;2024-02-04T18:40:04;2.13;;;1.93;;
12163;SDS011;6145;50.192;10.064;2024-02-04T18:42:34;1.90;;;1.80;;
12163;SDS011;6145;50.192;10.064;2024-02-04T18:45:01;1.90;;;1.80;;
12163;SDS011;6145;50.192;10.064;2024-02-04T18:47:29;2.60;;;2.13;;
12163;SDS011;6145;50.192;10.064;2024-02-04T18:49:57;2.00;;;1.90;;
12163;SDS011;6145;50.192;10.064;2024-02-04T18:52:24;2.70;;;1.90;;
12163;SDS011;6145;50.192;10.064;2024-02-04T18:54:51;2.90;;;2.20;;
12163;SDS011;6145;50.192;10.064;2024-02-04T18:57:18;2.60;;;2.40;;
12163;SDS011;6145;50.192;10.064;2024-02-04T18:59:45;1.67;;;1.57;;
12163;SDS011;6145;50.192;10.064;2024-02-04T19:02:12;2.00;;;1.90;;
12163;SDS011;6145;50.192;10.064;2024-02-04T19:04:39;2.70;;;2.50;;
12163;SDS011;6145;50.192;10.064;2024-02-04T19:07:08;1.70;;;1.60;;
12163;SDS011;6145;50.192;10.064;2024-02-04T19:09:35;2.03;;;1.90;;
12163;SDS011;6145;50.192;10.064;2024-02-04T19:12:02;1.97;;;1.80;;
12163;SDS011;6145;50.192;10.064;2024-02-04T19:14:29;3.13;;;2.83;;
12163;SDS011;6145;50.192;10.064;2024-02-04T19:16:55;2.17;;;1.83;;
12163;SDS011;6145;50.192;10.064;2024-02-04T19:19:22;2.43;;;2.23;;
12163;SDS011;6145;50.192;10.064;2024-02-04T19:21:49;3.80;;;1.90;;
12163;SDS011;6145;50.192;10.064;2024-02-04T19:24:18;2.17;;;1.97;;
12163;SDS011;6145;50.192;10.064;2024-02-04T19:26:45;3.07;;;2.60;;
12163;SDS011;6145;50.192;10.064;2024-02-04T19:29:12;2.60;;;2.40;;
12163;SDS011;6145;50.192;10.064;2024-02-04T19:31:41;1.97;;;1.80;;
12163;SDS011;6145;50.192;10.064;2024-02-04T19:34:08;2.20;;;2.00;;
12163;SDS011;6145;50.192;10.064;2024-02-04T19:36:35;2.10;;;1.90;;
12163;SDS011;6145;50.192;10.064;2024-02-04T19:39:01;2.10;;;1.90;;
12163;SDS011;6145;50.192;10.064;2024-02-04T19:41:31;2.13;;;1.93;;
12163;SDS011;6145;50.192;10.064;2024-02-04T19:43:58;3.10;;;2.40;;
12163;SDS011;6145;50.192;10.064;2024-02-04T19:46:25;1.87;;;1.70;;
12163;SDS011;6145;50.192;10.064;2024-02-04T19:48:51;2.83;;;2.53;;
12163;SDS011;6145;50.192;10.064;2024-02-04T19:51:18;2.10;;;1.90;;
12163;SDS011;6145;50.192;10.064;2024-02-04T19:53:45;2.07;;;1.87;;
12163;SDS011;6145;50.192;10.064;2024-02-04T19:56:12;2.07;;;1.87;;
12163;SDS011;6145;50.192;10.064;2024-02-04T19:58:40;1.77;;;1.67;;
12163;SDS011;6145;50.192;10.064;2024-02-04T20:01:08;2.97;;;2.67;;
12163;SDS011;6145;50.192;10.064;2024-02-04T20:03:35;1.57;;;1.47;;
12163;SDS011;6145;50.192;10.064;2024-02-04T20:06:02;3.17;;;1.90;;
12163;SDS011;6145;50.192;10.064;2024-02-04T20:08:30;2.00;;;1.87;;
12163;SDS011;6145;50.192;10.064;2024-02-04T20:10:57;1.37;;;1.27;;
12163;SDS011;6145;50.192;10.064;2024-02-04T20:13:23;1.70;;;1.60;;
12163;SDS011;6145;50.192;10.064;2024-02-04T20:15:54;1.50;;;1.40;;
12163;SDS011;6145;50.192;10.064;2024-02-04T20:18:21;1.70;;;1.60;;
12163;SDS011;6145;50.192;10.064;2024-02-04T20:20:48;1.50;;;1.40;;
12163;SDS011;6145;50.192;10.064;2024-02-04T20:23:15;1.43;;;1.33;;
12163;SDS011;6145;50.192;10.064;2024-02-04T20:25:42;2.20;;;2.00;;
12163;SDS011;6145;50.192;10.064;2024-02-04T20:28:09;1.47;;;1.37;;
12163;SDS011;6145;50.192;10.064;2024-02-04T20:30:37;1.87;;;1.70;;
12163;SDS011;6145;50.192;10.064;2024-02-04T20:33:05;1.10;;;1.10;;
12163;SDS011;6145;50.192;10.064;2024-02-04T20:35:32;1.47;;;1.37;;
12163;SDS011;6145;50.192;10.064;2024-02-04T20:37:59;1.10;;;1.07;;
12163;SDS011;6145;50.192;10.064;2024-02-04T20:40:26;1.53;;;1.00;;
12163;SDS011;6145;50.192;10.064;2024-02-04T20:42:53;1.13;;;1.13;;
12163;SDS011;6145;50.192;10.064;2024-02-04T20:45:20;1.50;;;1.40;;
12163;SDS011;6145;50.192;10.064;2024-02-04T20:47:47;1.20;;;1.10;;
12163;SDS011;6145;50.192;10.064;2024-02-04T20:50:15;1.53;;;1.43;;
12163;SDS011;6145;50.192;10.064;2024-02-04T20:52:42;1.60;;;1.50;;
12163;SDS011;6145;50.192;10.064;2024-02-04T20:55:08;1.73;;;1.20;;
12163;SDS011;6145;50.192;10.064;2024-02-04T20:57:35;1.27;;;1.17;;
12163;SDS011;6145;50.192;10.064;2024-02-04T21:00:03;1.40;;;1.30;;
12163;SDS011;6145;50.192;10.064;2024-02-04T21:02:31;1.33;;;1.23;;
12163;SDS011;6145;50.192;10.064;2024-02-04T21:04:58;1.40;;;1.30;;
12163;SDS011;6145;50.192;10.064;2024-02-04T21:07:27;1.37;;;1.27;;
12163;SDS011;6145;50.192;10.064;2024-02-04T21:09:54;1.20;;;1.10;;
12163;SDS011;6145;50.192;10.064;2024-02-04T21:12:21;1.23;;;1.23;;
12163;SDS011;6145;50.192;10.064;2024-02-04T21:14:48;1.53;;;1.37;;
12163;SDS011;6145;50.192;10.064;2024-02-04T21:17:14;0.90;;;0.90;;
12163;SDS011;6145;50.192;10.064;2024-02-04T21:19:41;1.20;;;1.20;;
12163;SDS011;6145;50.192;10.064;2024-02-04T21:22:09;1.20;;;1.10;;
12163;SDS011;6145;50.192;10.064;2024-02-04T21:24:38;2.97;;;1.40;;
12163;SDS011;6145;50.192;10.064;2024-02-04T21:27:04;1.20;;;1.13;;
12163;SDS011;6145;50.192;10.064;2024-02-04T21:29:32;1.17;;;1.07;;
12163;SDS011;6145;50.192;10.064;2024-02-04T21:31:58;1.20;;;1.10;;
12163;SDS011;6145;50.192;10.064;2024-02-04T21:34:25;1.17;;;1.17;;
12163;SDS011;6145;50.192;10.064;2024-02-04T21:36:52;1.17;;;1.13;;
12163;SDS011;6145;50.192;10.064;2024-02-04T21:39:20;1.83;;;1.20;;
12163;SDS011;6145;50.192;10.064;2024-02-04T21:41:48;1.37;;;1.27;;
12163;SDS011;6145;50.192;10.064;2024-02-04T21:44:15;0.93;;;0.90;;
12163;SDS011;6145;50.192;10.064;2024-02-04T21:46:44;1.00;;;1.00;;
12163;SDS011;6145;50.192;10.064;2024-02-04T21:49:12;0.97;;;0.97;;
12163;SDS011;6145;50.192;10.064;2024-02-04T21:51:38;1.00;;;1.00;;
12163;SDS011;6145;50.192;10.064;2024-02-04T21:54:05;1.60;;;1.00;;
12163;SDS011;6145;50.192;10.064;2024-02-04T21:56:32;1.23;;;1.17;;
12163;SDS011;6145;50.192;10.064;2024-02-04T21:59:00;0.97;;;0.90;;
12163;SDS011;6145;50.192;10.064;2024-02-04T22:01:27;1.00;;;1.00;;
12163;SDS011;6145;50.192;10.064;2024-02-04T22:03:54;0.90;;;0.90;;
12163;SDS011;6145;50.192;10.064;2024-02-04T22:06:22;0.83;;;0.83;;
12163;SDS011;6145;50.192;10.064;2024-02-04T22:08:51;1.20;;;1.03;;
12163;SDS011;6145;50.192;10.064;2024-02-04T22:11:17;1.43;;;1.00;;
12163;SDS011;6145;50.192;10.064;2024-02-04T22:13:44;1.23;;;1.13;;
12163;SDS011;6145;50.192;10.064;2024-02-04T22:16:12;0.77;;;0.77;;
12163;SDS011;6145;50.192;10.064;2024-02-04T22:18:39;1.10;;;1.00;;
12163;SDS011;6145;50.192;10.064;2024-02-04T22:21:06;0.93;;;0.93;;
12163;SDS011;6145;50.192;10.064;2024-02-04T22:23:33;1.20;;;1.10;;
12163;SDS011;6145;50.192;10.064;2024-02-04T22:26:02;1.23;;;1.13;;
12163;SDS011;6145;50.192;10.064;2024-02-04T22:28:29;1.20;;;1.10;;
12163;SDS011;6145;50.192;10.064;2024-02-04T22:30:56;1.30;;;1.20;;
12163;SDS011;6145;50.192;10.064;2024-02-04T22:33:24;0.90;;;0.90;;
12163;SDS011;6145;50.192;10.064;2024-02-04T22:35:51;0.80;;;0.80;;
12163;SDS011;6145;50.192;10.064;2024-02-04T22:38:18;1.20;;;1.10;;
12163;SDS011;6145;50.192;10.064;2024-02-04T22:40:44;0.90;;;0.90;;
12163;SDS011;6145;50.192;10.064;2024-02-04T22:43:11;0.83;;;0.83;;
12163;SDS011;6145;50.192;10.064;2024-02-04T22:45:38;0.87;;;0.87;;
12163;SDS011;6145;50.192;10.064;2024-02-04T22:48:05;1.63;;;1.00;;
12163;SDS011;6145;50.192;10.064;2024-02-04T22:50:34;0.90;;;0.90;;
12163;SDS011;6145;50.192;10.064;2024-02-04T22:53:01;0.90;;;0.87;;
12163;SDS011;6145;50.192;10.064;2024-02-04T22:55:28;1.00;;;1.00;;
12163;SDS011;6145;50.192;10.064;2024-02-04T22:57:54;0.90;;;0.90;;
12163;SDS011;6145;50.192;10.064;2024-02-04T23:00:21;1.30;;;1.13;;
12163;SDS011;6145;50.192;10.064;2024-02-04T23:02:53;0.87;;;0.87;;
12163;SDS011;6145;50.192;10.064;2024-02-04T23:05:20;0.80;;;0.80;;
12163;SDS011;6145;50.192;10.064;2024-02-04T23:07:48;0.83;;;0.83;;
12163;SDS011;6145;50.192;10.064;2024-02-04T23:10:15;1.87;;;1.70;;
12163;SDS011;6145;50.192;10.064;2024-02-04T23:12:42;1.10;;;1.10;;
12163;SDS011;6145;50.192;10.064;2024-02-04T23:15:09;0.80;;;0.80;;
12163;SDS011;6145;50.192;10.064;2024-02-04T23:17:35;0.90;;;0.90;;
12163;SDS011;6145;50.192;10.064;2024-02-04T23:20:02;0.90;;;0.90;;
12163;SDS011;6145;50.192;10.064;2024-02-04T23:22:30;0.70;;;0.70;;
12163;SDS011;6145;50.192;10.064;2024-02-04T23:24:58;0.80;;;0.80;;
12163;SDS011;6145;50.192;10.064;2024-02-04T23:27:25;0.90;;;0.90;;
12163;SDS011;6145;50.192;10.064;2024-02-04T23:29:52;1.00;;;1.00;;
12163;SDS011;6145;50.192;10.064;2024-02-04T23:32:19;2.47;;;0.70;;
12163;SDS011;6145;50.192;10.064;2024-02-04T23:34:46;3.80;;;0.80;;
12163;SDS011;6145;50.192;10.064;2024-02-04T23:37:14;0.90;;;0.90;;
12163;SDS011;6145;50.192;10.064;2024-02-04T23:39:40;0.77;;;0.77;;
12163;SDS011;6145;50.192;10.064;2024-02-04T23:42:08;0.90;;;0.80;;
12163;SDS011;6145;50.192;10.064;2024-02-04T23:44:37;0.80;;;0.80;;
12163;SDS011;6145;50.192;10.064;2024-02-04T23:47:04;2.33;;;0.80;;
12163;SDS011;6145;50.192;10.064;2024-02-04T23:49:31;1.20;;;0.90;;
12163;SDS011;6145;50.192;10.064;2024-02-04T23:51:58;0.70;;;0.70;;
12163;SDS011;6145;50.192;10.064;2024-02-04T23:54:25;0.80;;;0.80;;
12163;SDS011;6145;50.192;10.064;2024-02-04T23:56:52;0.77;;;0.77;;
12163;SDS011;6145;50.192;10.064;2024-02-04T23:59:20;0.80;;;0.80;;
